createdAt,value
2019-03-11T00:01:58.930Z,16.77
2019-03-11T00:04:30.450Z,17.70
2019-03-11T00:07:01.781Z,17.17
2019-03-11T00:09:33.072Z,17.10
2019-03-11T00:12:04.522Z,16.27
2019-03-11T00:14:35.872Z,14.18
2019-03-11T00:17:07.302Z,15.20
2019-03-11T00:19:38.578Z,15.32
2019-03-11T00:22:09.673Z,13.78
2019-03-11T00:24:40.801Z,12.90
2019-03-11T00:27:12.238Z,11.95
2019-03-11T00:29:43.284Z,11.38
2019-03-11T00:32:14.626Z,10.38
2019-03-11T00:34:45.958Z,9.80
2019-03-11T00:37:17.993Z,9.60
2019-03-11T00:39:49.373Z,8.85
2019-03-11T00:42:20.617Z,8.95
2019-03-11T00:44:51.878Z,8.03
2019-03-11T00:47:23.110Z,8.38
2019-03-11T00:49:55.145Z,7.87
2019-03-11T00:52:27.463Z,7.67
2019-03-11T00:55:01.771Z,7.65
2019-03-11T00:57:33.009Z,8.35
2019-03-11T01:00:09.914Z,7.90
2019-03-11T01:02:41.168Z,7.83
2019-03-11T01:05:12.483Z,7.42
2019-03-11T01:07:43.733Z,7.75
2019-03-11T01:10:15.799Z,7.45
2019-03-11T01:12:47.048Z,8.08
2019-03-11T01:15:18.141Z,7.78
2019-03-11T01:17:50.338Z,7.80
2019-03-11T01:20:22.490Z,7.90
2019-03-11T01:22:53.723Z,8.50
2019-03-11T01:25:25.039Z,8.98
2019-03-11T01:27:58.070Z,10.35
2019-03-11T01:30:29.267Z,10.20
2019-03-11T01:33:00.440Z,10.32
2019-03-11T01:35:31.863Z,10.60
2019-03-11T01:38:04.297Z,11.05
2019-03-11T01:40:37.430Z,11.78
2019-03-11T01:43:08.818Z,11.43
2019-03-11T01:45:43.501Z,13.62
2019-03-11T01:48:14.857Z,15.03
2019-03-11T01:50:45.956Z,15.53
2019-03-11T01:53:17.139Z,16.02
2019-03-11T01:55:48.489Z,14.85
2019-03-11T01:58:19.474Z,15.23
2019-03-11T02:00:50.786Z,15.32
2019-03-11T02:03:22.024Z,15.23
2019-03-11T02:05:53.940Z,16.23
2019-03-11T02:08:25.243Z,14.75
2019-03-11T02:10:56.397Z,14.03
2019-03-11T02:13:27.443Z,12.15
2019-03-11T02:15:58.506Z,14.10
2019-03-11T02:18:29.589Z,13.30
2019-03-11T02:21:00.792Z,14.05
2019-03-11T02:23:32.952Z,13.30
2019-03-11T02:26:04.426Z,13.55
2019-03-11T02:28:35.828Z,10.58
2019-03-11T02:31:07.020Z,10.48
2019-03-11T02:33:38.372Z,10.03
2019-03-11T02:36:09.952Z,9.38
2019-03-11T02:38:41.336Z,9.60
2019-03-11T02:41:13.596Z,9.33
2019-03-11T02:43:46.893Z,8.83
2019-03-11T02:46:18.147Z,7.83
2019-03-11T02:48:50.445Z,8.78
2019-03-11T02:51:21.860Z,7.45
2019-03-11T02:53:53.218Z,6.92
2019-03-11T02:56:24.470Z,6.47
2019-03-11T02:58:55.711Z,6.03
2019-03-11T03:01:47.228Z,5.10
2019-03-11T03:04:23.194Z,4.67
2019-03-11T03:07:01.195Z,5.53
2019-03-11T03:09:32.442Z,4.28
2019-03-11T03:12:03.816Z,4.45
2019-03-11T03:14:35.090Z,3.55
2019-03-11T03:17:06.588Z,4.65
2019-03-11T03:19:37.747Z,3.95
2019-03-11T03:22:09.004Z,3.80
2019-03-11T03:24:40.142Z,3.75
2019-03-11T03:27:11.301Z,4.30
2019-03-11T03:29:42.513Z,4.22
2019-03-11T03:32:13.826Z,4.90
2019-03-11T03:34:45.243Z,5.45
2019-03-11T03:37:16.379Z,5.40
2019-03-11T03:39:47.779Z,5.15
2019-03-11T03:42:18.978Z,5.67
2019-03-11T03:45:10.279Z,5.55
2019-03-11T03:47:41.720Z,6.08
2019-03-11T03:50:12.974Z,6.00
2019-03-11T03:52:44.161Z,6.58
2019-03-11T03:55:15.375Z,6.03
2019-03-11T03:57:46.553Z,5.65
2019-03-11T04:00:17.658Z,5.72
2019-03-11T04:02:48.916Z,5.50
2019-03-11T04:05:20.128Z,6.20
2019-03-11T04:07:51.327Z,5.83
2019-03-11T04:10:22.439Z,5.58
2019-03-11T04:12:53.602Z,5.87
2019-03-11T04:15:24.732Z,5.45
2019-03-11T04:17:57.417Z,5.95
2019-03-11T04:20:28.653Z,5.58
2019-03-11T04:22:59.625Z,6.40
2019-03-11T04:25:30.755Z,6.25
2019-03-11T04:28:04.051Z,5.97
2019-03-11T04:30:35.598Z,4.60
2019-03-11T04:33:07.837Z,5.12
2019-03-11T04:35:39.177Z,4.97
2019-03-11T04:38:16.872Z,4.33
2019-03-11T04:40:50.222Z,4.90
2019-03-11T04:43:21.694Z,4.33
2019-03-11T04:45:54.952Z,4.62
2019-03-11T04:48:26.302Z,4.67
2019-03-11T04:50:57.951Z,5.03
2019-03-11T04:53:29.216Z,5.42
2019-03-11T04:56:02.631Z,5.97
2019-03-11T04:58:34.058Z,5.15
2019-03-11T05:01:05.350Z,4.78
2019-03-11T05:03:36.851Z,4.65
2019-03-11T05:06:07.908Z,4.92
2019-03-11T05:08:39.062Z,4.90
2019-03-11T05:11:11.430Z,5.00
2019-03-11T05:13:42.684Z,5.00
2019-03-11T05:16:15.958Z,4.92
2019-03-11T05:18:46.908Z,4.92
2019-03-11T05:21:19.216Z,4.42
2019-03-11T05:23:50.538Z,4.83
2019-03-11T05:26:21.760Z,5.08
2019-03-11T05:28:52.731Z,4.58
2019-03-11T05:31:24.363Z,4.92
2019-03-11T05:33:56.428Z,5.00
2019-03-11T05:36:28.692Z,4.72
2019-03-11T05:39:00.156Z,4.85
2019-03-11T05:41:34.168Z,4.70
2019-03-11T05:44:09.211Z,4.57
2019-03-11T05:46:41.679Z,4.67
2019-03-11T05:49:13.181Z,4.78
2019-03-11T05:51:45.506Z,5.60
2019-03-11T05:54:16.707Z,6.40
2019-03-11T05:56:47.809Z,7.50
2019-03-11T05:59:21.293Z,8.23
2019-03-11T06:01:54.183Z,8.50
2019-03-11T06:04:27.163Z,7.60
2019-03-11T06:06:58.610Z,8.10
2019-03-11T06:09:30.582Z,8.05
2019-03-11T06:12:01.928Z,8.83
2019-03-11T06:14:33.226Z,9.15
2019-03-11T06:17:05.769Z,11.30
2019-03-11T06:22:11.222Z,10.72
2019-03-11T06:24:42.541Z,10.08
2019-03-11T06:27:13.910Z,9.33
2019-03-11T06:29:45.378Z,9.43
2019-03-11T06:32:17.330Z,7.83
2019-03-11T06:34:48.423Z,7.10
2019-03-11T06:37:20.117Z,7.55
2019-03-11T06:39:51.380Z,6.72
2019-03-11T06:42:24.580Z,6.83
2019-03-11T06:44:56.025Z,6.73
2019-03-11T06:47:30.981Z,6.95
2019-03-11T06:50:06.724Z,7.00
2019-03-11T06:52:38.928Z,6.80
2019-03-11T06:55:12.355Z,6.53
2019-03-11T06:57:44.041Z,6.10
2019-03-11T07:00:21.459Z,5.65
2019-03-11T07:02:59.304Z,5.37
2019-03-11T07:05:32.021Z,4.87
2019-03-11T07:08:03.155Z,5.15
2019-03-11T07:10:41.266Z,4.97
2019-03-11T07:13:12.947Z,5.33
2019-03-11T07:15:44.493Z,4.50
2019-03-11T07:18:16.370Z,4.75
2019-03-11T07:20:48.575Z,4.95
2019-03-11T07:23:19.647Z,5.28
2019-03-11T07:25:51.024Z,4.53
2019-03-11T07:28:23.193Z,4.90
2019-03-11T07:30:54.433Z,4.85
2019-03-11T07:33:25.660Z,4.03
2019-03-11T07:35:56.706Z,4.40
2019-03-11T07:38:28.262Z,4.65
2019-03-11T07:40:59.641Z,5.08
2019-03-11T07:43:32.681Z,4.90
2019-03-11T07:46:06.130Z,5.93
2019-03-11T07:48:42.084Z,4.95
2019-03-11T07:51:13.444Z,5.80
2019-03-11T07:53:45.884Z,4.87
2019-03-11T07:56:18.473Z,5.65
2019-03-11T07:58:51.757Z,5.80
2019-03-11T08:01:23.886Z,5.67
2019-03-11T08:03:56.818Z,5.95
2019-03-11T08:06:29.389Z,5.92
2019-03-11T08:09:05.909Z,5.47
2019-03-11T08:11:37.311Z,5.87
2019-03-11T08:14:10.504Z,6.00
2019-03-11T08:16:43.193Z,6.37
2019-03-11T08:19:15.795Z,6.10
2019-03-11T08:21:49.672Z,5.20
2019-03-11T08:24:33.103Z,5.40
2019-03-11T08:27:07.549Z,6.00
2019-03-11T08:29:40.858Z,5.30
2019-03-11T08:32:12.197Z,5.80
2019-03-11T08:34:43.416Z,5.67
2019-03-11T08:37:15.788Z,14.40
2019-03-11T08:39:47.998Z,12.93
2019-03-11T08:42:20.230Z,10.95
2019-03-11T08:44:53.403Z,6.58
2019-03-11T08:47:25.736Z,4.62
2019-03-11T08:49:58.067Z,5.30
2019-03-11T08:52:29.168Z,4.67
2019-03-11T08:55:06.532Z,4.85
2019-03-11T08:57:40.041Z,4.67
2019-03-11T09:00:22.644Z,4.40
2019-03-11T09:02:53.881Z,4.65
2019-03-11T09:05:25.662Z,4.80
2019-03-11T09:07:58.310Z,5.20
2019-03-11T09:10:30.040Z,4.78
2019-03-11T09:13:01.446Z,5.67
2019-03-11T09:15:33.816Z,5.33
2019-03-11T09:18:05.293Z,4.55
2019-03-11T09:20:36.582Z,4.87
2019-03-11T09:23:09.904Z,24.55
2019-03-11T09:25:41.223Z,9.23
2019-03-11T09:28:13.425Z,6.15
2019-03-11T09:30:48.952Z,19.85
2019-03-11T09:33:20.495Z,7.75
2019-03-11T09:35:51.818Z,6.85
2019-03-11T09:38:25.035Z,5.45
2019-03-11T09:40:56.218Z,5.83
2019-03-11T09:43:27.755Z,5.60
2019-03-11T09:46:01.255Z,5.15
2019-03-11T09:48:32.595Z,5.80
2019-03-11T09:51:04.357Z,5.90
2019-03-11T09:53:38.131Z,6.28
2019-03-11T09:56:11.350Z,5.37
2019-03-11T09:58:42.625Z,4.80
2019-03-11T10:01:18.358Z,5.22
2019-03-11T10:03:49.972Z,6.40
2019-03-11T10:06:23.517Z,6.35
2019-03-11T10:08:54.673Z,7.60
2019-03-11T10:11:26.246Z,6.97
2019-03-11T10:13:57.863Z,6.87
2019-03-11T10:16:29.181Z,12.85
2019-03-11T10:19:04.638Z,6.55
2019-03-11T10:21:36.103Z,6.60
2019-03-11T10:24:16.681Z,6.33
2019-03-11T10:26:52.148Z,6.60
2019-03-11T10:29:23.352Z,5.90
2019-03-11T10:31:58.516Z,5.55
2019-03-11T10:34:31.016Z,6.15
2019-03-11T10:37:03.940Z,5.83
2019-03-11T10:39:36.385Z,4.97
2019-03-11T10:42:07.794Z,6.03
2019-03-11T10:44:40.067Z,7.45
2019-03-11T10:47:13.311Z,9.85
2019-03-11T10:49:44.928Z,8.18
2019-03-11T10:52:18.326Z,8.18
2019-03-11T10:54:50.905Z,6.40
2019-03-11T10:57:22.434Z,6.22
2019-03-11T10:59:55.856Z,7.30
2019-03-11T11:02:27.361Z,7.75
2019-03-11T11:04:58.649Z,7.20
2019-03-11T11:07:31.236Z,8.23
2019-03-11T11:10:08.854Z,7.15
2019-03-11T11:12:41.670Z,7.65
2019-03-11T11:15:15.318Z,7.53
2019-03-11T11:20:21.615Z,6.37
2019-03-11T11:23:03.686Z,6.95
2019-03-11T11:25:35.981Z,7.33
2019-03-11T11:28:13.565Z,7.85
2019-03-11T11:30:48.636Z,8.10
2019-03-11T11:33:22.033Z,7.40
2019-03-11T11:35:53.337Z,7.33
2019-03-11T11:38:26.368Z,7.42
2019-03-11T11:40:57.700Z,7.22
2019-03-11T11:43:29.157Z,7.08
2019-03-11T11:46:00.545Z,6.58
2019-03-11T11:48:33.035Z,5.72
2019-03-11T11:51:04.650Z,6.42
2019-03-11T11:53:37.004Z,10.85
2019-03-11T11:56:13.414Z,12.73
2019-03-11T11:58:50.315Z,13.70
2019-03-11T12:01:22.415Z,8.33
2019-03-11T12:03:54.714Z,12.50
2019-03-11T12:06:28.749Z,10.43
2019-03-11T12:09:00.949Z,11.45
2019-03-11T12:11:33.948Z,11.20
2019-03-11T12:14:08.362Z,9.43
2019-03-11T12:16:39.839Z,10.85
2019-03-11T12:19:11.722Z,12.47
2019-03-11T12:21:44.686Z,10.63
2019-03-11T12:24:19.526Z,14.33
2019-03-11T12:26:50.957Z,19.70
2019-03-11T12:29:22.598Z,15.18
2019-03-11T12:31:55.576Z,12.90
2019-03-11T12:34:28.154Z,19.15
2019-03-11T12:36:59.725Z,11.10
2019-03-11T12:39:31.691Z,15.43
2019-03-11T12:42:04.025Z,14.07
2019-03-11T12:44:35.287Z,12.93
2019-03-11T12:47:08.959Z,9.73
2019-03-11T12:52:17.774Z,14.05
2019-03-11T12:54:49.284Z,10.40
2019-03-11T12:57:21.433Z,13.78
2019-03-11T12:59:54.169Z,11.30
2019-03-11T13:02:26.335Z,9.53
2019-03-11T13:04:59.946Z,11.70
2019-03-11T13:10:20.509Z,7.72
2019-03-11T13:12:52.370Z,6.28
2019-03-11T13:15:29.233Z,7.85
2019-03-11T13:18:29.573Z,11.25
2019-03-11T13:21:05.779Z,12.88
2019-03-11T13:23:41.669Z,8.38
2019-03-11T13:26:19.454Z,9.80
2019-03-11T13:28:51.450Z,12.88
2019-03-11T13:31:25.146Z,11.68
2019-03-11T13:34:00.543Z,11.05
2019-03-11T13:36:41.039Z,10.25
2019-03-11T13:39:13.095Z,12.25
2019-03-11T13:41:47.123Z,11.20
2019-03-11T13:44:19.942Z,6.33
2019-03-11T13:46:58.401Z,7.62
2019-03-11T13:49:36.187Z,7.60
2019-03-11T13:52:11.140Z,10.80
2019-03-11T13:54:47.666Z,9.03
2019-03-11T13:57:22.301Z,10.80
2019-03-11T13:59:57.520Z,6.12
2019-03-11T14:02:32.257Z,11.38
2019-03-11T14:05:06.521Z,11.83
2019-03-11T14:07:42.033Z,11.80
2019-03-11T14:10:15.440Z,8.00
2019-03-11T14:12:49.047Z,8.38
2019-03-11T14:15:23.266Z,6.53
2019-03-11T14:17:57.813Z,3.17
2019-03-11T14:20:37.166Z,3.47
2019-03-11T14:23:11.272Z,8.73
2019-03-11T14:25:44.766Z,4.20
2019-03-11T14:28:30.250Z,3.22
2019-03-11T14:31:10.997Z,3.40
2019-03-11T14:33:52.200Z,4.05
2019-03-11T14:36:24.743Z,4.12
2019-03-11T14:38:57.404Z,15.32
2019-03-11T14:41:28.908Z,8.95
2019-03-11T14:44:00.678Z,10.65
2019-03-11T14:46:32.762Z,19.45
2019-03-11T14:49:04.400Z,12.10
2019-03-11T14:51:37.510Z,10.65
2019-03-11T14:54:10.675Z,10.58
2019-03-11T14:56:42.291Z,10.03
2019-03-11T14:59:13.658Z,6.62
2019-03-11T15:01:45.121Z,7.05
2019-03-11T15:04:19.253Z,5.12
2019-03-11T15:06:52.838Z,7.15
2019-03-11T15:09:24.285Z,7.20
2019-03-11T15:11:55.375Z,4.65
2019-03-11T15:14:28.441Z,3.05
2019-03-11T15:17:01.019Z,4.72
2019-03-11T15:19:33.474Z,13.73
2019-03-11T15:22:05.991Z,3.80
2019-03-11T15:24:38.418Z,4.03
2019-03-11T15:27:09.832Z,3.40
2019-03-11T15:29:41.271Z,2.70
2019-03-11T15:32:13.730Z,7.45
2019-03-11T15:34:45.080Z,8.35
2019-03-11T15:37:22.647Z,10.55
2019-03-11T15:39:55.006Z,12.13
2019-03-11T15:42:26.523Z,11.68
2019-03-11T15:44:58.639Z,17.10
2019-03-11T15:47:29.898Z,13.83
2019-03-11T15:50:01.101Z,23.47
2019-03-11T15:52:35.727Z,24.93
2019-03-11T15:55:12.292Z,7.45
2019-03-11T15:57:44.219Z,4.10
2019-03-11T16:00:22.658Z,4.62
2019-03-11T16:02:53.880Z,5.33
2019-03-11T16:05:25.705Z,5.90
2019-03-11T16:07:57.082Z,6.62
2019-03-11T16:10:29.396Z,5.03
2019-03-11T16:13:00.516Z,5.95
2019-03-11T16:15:31.751Z,6.97
2019-03-11T16:18:02.854Z,5.67
2019-03-11T16:20:34.089Z,3.10
2019-03-11T16:23:07.172Z,2.98
2019-03-11T16:25:38.394Z,3.85
2019-03-11T16:28:10.665Z,5.95
2019-03-11T16:30:42.623Z,7.53
2019-03-11T16:33:14.896Z,22.58
2019-03-11T16:35:46.300Z,10.72
2019-03-11T16:38:18.329Z,11.50
2019-03-11T16:40:50.557Z,7.55
2019-03-11T16:43:23.378Z,6.08
2019-03-11T16:45:56.866Z,4.85
2019-03-11T16:48:28.129Z,3.72
2019-03-11T16:50:59.453Z,4.00
2019-03-11T16:53:31.301Z,4.00
2019-03-11T16:56:03.793Z,6.92
2019-03-11T16:58:34.910Z,9.30
2019-03-11T17:01:07.586Z,10.95
2019-03-11T17:03:38.579Z,25.62
2019-03-11T17:06:09.816Z,43.73
2019-03-11T17:08:41.384Z,24.80
2019-03-11T17:11:12.823Z,21.15
2019-03-11T17:13:43.889Z,11.48
2019-03-11T17:16:16.067Z,7.28
2019-03-11T17:18:49.398Z,5.95
2019-03-11T17:21:20.816Z,6.08
2019-03-11T17:23:51.875Z,6.33
2019-03-11T17:26:23.168Z,10.58
2019-03-11T17:28:54.514Z,10.05
2019-03-11T17:31:25.704Z,4.03
2019-03-11T17:33:56.780Z,4.33
2019-03-11T17:36:32.924Z,2.62
2019-03-11T17:39:10.174Z,3.30
2019-03-11T17:41:41.437Z,2.58
2019-03-11T17:44:12.826Z,3.90
2019-03-11T17:46:44.416Z,2.58
2019-03-11T17:49:15.648Z,2.10
2019-03-11T17:51:47.887Z,2.75
2019-03-11T17:54:18.914Z,2.50
2019-03-11T17:56:55.273Z,2.85
2019-03-11T17:59:28.781Z,3.00
2019-03-11T18:02:00.543Z,3.70
2019-03-11T18:04:31.665Z,2.55
2019-03-11T18:07:03.011Z,2.55
2019-03-11T18:09:35.851Z,3.35
2019-03-11T18:12:07.240Z,2.45
2019-03-11T18:14:40.006Z,3.58
2019-03-11T18:17:15.698Z,3.00
2019-03-11T18:19:47.997Z,2.10
2019-03-11T18:22:19.382Z,2.58
2019-03-11T18:24:53.094Z,2.30
2019-03-11T18:27:29.987Z,2.45
2019-03-11T18:30:01.652Z,2.98
2019-03-11T18:32:39.916Z,2.42
2019-03-11T18:35:11.504Z,2.65
2019-03-11T18:37:44.080Z,3.10
2019-03-11T18:40:16.686Z,4.05
2019-03-11T18:42:47.704Z,7.35
2019-03-11T18:45:18.709Z,14.47
2019-03-11T18:47:51.159Z,9.58
2019-03-11T18:50:25.485Z,12.18
2019-03-11T18:52:58.838Z,5.87
2019-03-11T18:55:29.903Z,3.33
2019-03-11T18:58:02.549Z,2.20
2019-03-11T19:00:33.672Z,2.35
2019-03-11T19:03:05.079Z,2.95
2019-03-11T19:05:37.429Z,2.37
2019-03-11T19:08:10.046Z,2.05
2019-03-11T19:10:41.218Z,2.27
2019-03-11T19:13:12.766Z,2.50
2019-03-11T19:15:44.255Z,1.95
2019-03-11T19:18:17.274Z,2.30
2019-03-11T19:20:48.959Z,2.35
2019-03-11T19:23:20.880Z,2.20
2019-03-11T19:25:52.277Z,3.02
2019-03-11T19:28:23.747Z,3.25
2019-03-11T19:30:56.752Z,2.90
2019-03-11T19:33:28.008Z,2.92
2019-03-11T19:35:59.304Z,2.87
2019-03-11T19:38:30.914Z,3.00
2019-03-11T19:41:03.460Z,3.52
2019-03-11T19:43:34.821Z,2.47
2019-03-11T19:46:05.879Z,2.52
2019-03-11T19:48:38.113Z,2.52
2019-03-11T19:51:09.896Z,2.60
2019-03-11T19:53:41.461Z,2.50
2019-03-11T19:56:14.379Z,2.33
2019-03-11T19:58:47.714Z,2.10
2019-03-11T20:01:19.248Z,2.10
2019-03-11T20:03:50.474Z,2.22
2019-03-11T20:06:21.774Z,2.10
2019-03-11T20:08:52.932Z,2.70
2019-03-11T20:11:25.179Z,1.98
2019-03-11T20:13:56.512Z,1.98
2019-03-11T20:16:27.715Z,1.98
2019-03-11T20:18:58.981Z,2.47
2019-03-11T20:21:30.165Z,2.10
2019-03-11T20:24:02.456Z,2.10
2019-03-11T20:26:33.952Z,2.87
2019-03-11T20:29:06.211Z,3.27
2019-03-11T20:31:38.542Z,3.70
2019-03-11T20:34:09.915Z,8.78
2019-03-11T20:36:41.019Z,7.60
2019-03-11T20:39:11.977Z,6.92
2019-03-11T20:41:44.267Z,14.13
2019-03-11T20:44:15.582Z,9.10
2019-03-11T20:46:46.986Z,6.78
2019-03-11T20:49:18.508Z,6.47
2019-03-11T20:51:50.759Z,6.75
2019-03-11T20:54:21.937Z,5.75
2019-03-11T20:56:53.405Z,4.60
2019-03-11T20:59:27.068Z,3.62
2019-03-11T21:01:58.369Z,2.77
2019-03-11T21:04:29.688Z,3.00
2019-03-11T21:07:01.305Z,3.20
2019-03-11T21:09:32.856Z,3.60
2019-03-11T21:12:04.203Z,3.00
2019-03-11T21:14:35.702Z,3.02
2019-03-11T21:17:07.702Z,2.72
2019-03-11T21:19:38.818Z,4.55
2019-03-11T21:22:09.995Z,5.28
2019-03-11T21:24:41.830Z,4.20
2019-03-11T21:27:14.123Z,2.98
2019-03-11T21:29:48.923Z,3.90
2019-03-11T21:32:20.476Z,3.02
2019-03-11T21:34:55.113Z,2.40
2019-03-11T21:37:26.736Z,3.42
2019-03-11T21:39:58.050Z,2.83
2019-03-11T21:42:33.815Z,3.40
2019-03-11T21:45:06.806Z,3.20
2019-03-11T21:47:41.443Z,3.08
2019-03-11T21:50:18.126Z,2.10
2019-03-11T21:52:50.766Z,2.30
2019-03-11T21:55:25.414Z,2.50
2019-03-11T21:58:12.677Z,2.27
2019-03-11T22:00:36.292Z,2.70
2019-03-11T22:03:07.704Z,2.85
2019-03-11T22:05:40.066Z,2.33
2019-03-11T22:08:11.305Z,2.52
2019-03-11T22:10:43.274Z,2.80
2019-03-11T22:13:15.543Z,2.70
2019-03-11T22:15:48.838Z,2.37
2019-03-11T22:18:22.250Z,2.42
2019-03-11T22:20:53.531Z,2.12
2019-03-11T22:23:25.144Z,2.25
2019-03-11T22:25:57.519Z,2.72
2019-03-11T22:28:30.119Z,2.33
2019-03-11T22:31:02.886Z,2.62
2019-03-11T22:33:35.045Z,2.52
2019-03-11T22:36:06.495Z,2.80
2019-03-11T22:38:39.391Z,2.95
2019-03-11T22:41:10.751Z,2.85
2019-03-11T22:43:41.944Z,2.58
2019-03-11T22:46:13.325Z,2.37
2019-03-11T22:48:44.614Z,2.70
2019-03-11T22:51:16.128Z,2.80
2019-03-11T22:53:51.585Z,2.65
2019-03-11T22:56:21.589Z,2.92
2019-03-11T22:58:52.834Z,2.40
2019-03-11T23:01:25.514Z,2.95
2019-03-11T23:03:56.869Z,2.92
2019-03-11T23:06:28.216Z,2.55
2019-03-11T23:08:59.259Z,2.85
2019-03-11T23:11:30.368Z,2.62
2019-03-11T23:14:01.662Z,2.87
2019-03-11T23:16:32.675Z,2.72
2019-03-11T23:19:03.947Z,3.00
2019-03-11T23:21:35.297Z,2.58
2019-03-11T23:24:07.460Z,2.52
2019-03-11T23:26:38.502Z,2.45
2019-03-11T23:29:09.792Z,2.15
2019-03-11T23:31:40.965Z,2.35
2019-03-11T23:34:12.057Z,2.67
2019-03-11T23:36:43.391Z,2.55
2019-03-11T23:39:14.566Z,2.62
2019-03-11T23:41:45.802Z,2.75
2019-03-11T23:44:16.820Z,2.92
2019-03-11T23:46:48.030Z,5.17
2019-03-11T23:49:19.033Z,3.15
2019-03-11T23:51:50.576Z,4.05
2019-03-11T23:54:21.713Z,3.40
2019-03-11T23:56:52.708Z,3.00
2019-03-11T23:59:23.997Z,2.92
